Time;durP1;ratioP1;P1;durP2;ratioP2;P2;SDS_P1;SDS_P2;PMS_P1;PMS_P2;Temp;Humidity;BMP_temperature;BMP_pressure;BME280_temperature;BME280_humidity;BME280_pressure;Samples;Min_cycle;Max_cycle;Signal;HPM_P1;HPM_P2
2022/09/06 00:01:51;;;;;;;4.93;1.95;;;27.00;48.30;;;;;;6252794;28;20679;-76
2022/09/06 00:04:52;;;;;;;11.13;2.33;;;26.90;48.50;;;;;;6253625;28;20049;-76
2022/09/06 00:07:53;;;;;;;10.60;2.45;;;26.90;48.60;;;;;;6258552;28;20029;-76
2022/09/06 00:10:58;;;;;;;8.80;2.13;;;26.90;49.40;;;;;;6249726;28;20045;-76
2022/09/06 00:13:58;;;;;;;10.45;2.30;;;26.90;49.00;;;;;;6258691;28;20037;-76
2022/09/06 00:16:59;;;;;;;11.15;2.17;;;26.80;49.00;;;;;;6259804;28;20045;-76
2022/09/06 00:20:02;;;;;;;6.18;1.63;;;26.80;48.90;;;;;;6242101;28;20073;-75
2022/09/06 00:23:04;;;;;;;8.27;2.13;;;26.80;48.60;;;;;;6269250;28;20051;-76
2022/09/06 00:26:05;;;;;;;7.40;1.90;;;26.70;48.40;;;;;;6268156;28;20466;-76
2022/09/06 00:29:06;;;;;;;9.15;2.15;;;26.70;48.10;;;;;;6249786;28;20049;-76
2022/09/06 00:32:07;;;;;;;6.45;1.70;;;26.70;47.80;;;;;;6259708;28;20132;-76
2022/09/06 00:35:08;;;;;;;6.80;1.80;;;26.70;47.70;;;;;;6260757;28;20052;-76
2022/09/06 00:38:09;;;;;;;10.63;2.15;;;26.70;47.60;;;;;;6252835;28;20052;-76
2022/09/06 00:41:12;;;;;;;10.07;1.38;;;26.70;47.60;;;;;;6271817;28;20029;-76
2022/09/06 00:44:13;;;;;;;7.05;2.03;;;26.70;47.60;;;;;;6286016;28;20369;-76
2022/09/06 00:47:13;;;;;;;7.53;1.98;;;26.70;47.70;;;;;;6257036;28;20036;-76
2022/09/06 00:50:17;;;;;;;10.10;1.75;;;26.70;47.60;;;;;;6272446;28;20529;-76
2022/09/06 00:53:19;;;;;;;7.35;1.60;;;26.70;47.60;;;;;;6278518;28;20037;-76
2022/09/06 00:56:20;;;;;;;4.90;1.75;;;26.60;47.50;;;;;;6266352;28;20132;-76
2022/09/06 00:59:24;;;;;;;6.07;1.80;;;26.50;47.50;;;;;;6251603;28;20036;-76
2022/09/06 01:02:25;;;;;;;3.67;1.67;;;26.50;47.50;;;;;;6262371;28;20093;-76
2022/09/06 01:05:38;;;;;;;9.68;1.63;;;26.50;47.60;;;;;;6250672;28;20368;-77
2022/09/06 01:09:05;;;;;;;5.63;1.73;;;26.50;47.60;;;;;;6280288;28;20068;-74
2022/09/06 01:12:31;;;;;;;12.20;2.13;;;26.40;47.60;;;;;;6259538;28;20112;-76
2022/09/06 01:15:50;;;;;;;8.88;2.15;;;26.40;47.60;;;;;;6248155;28;20067;-76
2022/09/06 01:19:06;;;;;;;16.50;1.63;;;26.40;47.60;;;;;;6263182;28;20147;-76
2022/09/06 01:22:07;;;;;;;1.58;1.20;;;26.40;47.60;;;;;;6260304;28;20041;-75
2022/09/06 01:25:29;;;;;;;11.48;1.50;;;26.40;47.60;;;;;;6260943;28;20419;-76
2022/09/06 01:28:45;;;;;;;3.97;1.50;;;26.30;47.60;;;;;;6249279;28;20378;-75
2022/09/06 01:31:59;;;;;;;3.28;1.60;;;26.30;47.60;;;;;;6261391;28;20063;-75
2022/09/06 01:35:49;;;;;;;4.25;2.08;;;26.30;47.60;;;;;;6260240;28;20044;-76
2022/09/06 01:38:50;;;;;;;8.48;2.08;;;26.30;47.70;;;;;;6274655;28;20061;-76
2022/09/06 01:41:52;;;;;;;10.02;1.70;;;26.30;47.60;;;;;;6267843;28;20102;-76
2022/09/06 01:45:03;;;;;;;9.18;1.85;;;26.20;47.50;;;;;;6274399;28;20124;-75
2022/09/06 01:48:15;;;;;;;5.28;1.90;;;26.20;47.60;;;;;;6267589;28;20040;-75
2022/09/06 01:51:44;;;;;;;16.33;2.03;;;26.20;47.70;;;;;;6281799;28;20040;-76
2022/09/06 01:55:19;;;;;;;15.85;2.15;;;26.20;47.90;;;;;;6275547;28;20078;-76
2022/09/06 01:58:37;;;;;;;11.77;1.90;;;26.20;47.90;;;;;;6261800;28;20465;-76
2022/09/06 02:02:04;;;;;;;8.90;1.70;;;26.10;47.90;;;;;;6282052;28;20441;-76
2022/09/06 02:05:16;;;;;;;7.78;1.83;;;26.10;47.90;;;;;;6261696;28;20172;-75
2022/09/06 02:08:24;;;;;;;5.82;1.40;;;26.10;47.90;;;;;;6269246;28;20033;-76
2022/09/06 02:11:28;;;;;;;6.55;2.08;;;26.10;47.90;;;;;;6280399;28;20041;-75
2022/09/06 02:14:40;;;;;;;13.07;2.30;;;26.20;48.00;;;;;;6287207;28;20421;-76
2022/09/06 02:17:57;;;;;;;9.45;1.35;;;26.00;48.00;;;;;;6271869;28;20132;-76
2022/09/06 02:20:59;;;;;;;7.38;2.50;;;26.00;48.10;;;;;;6250225;28;20045;-76
2022/09/06 02:24:04;;;;;;;6.75;1.80;;;26.00;48.10;;;;;;6249645;28;20357;-76
2022/09/06 02:27:05;;;;;;;5.90;1.45;;;26.00;48.20;;;;;;6229754;28;20025;-76
2022/09/06 02:30:07;;;;;;;6.93;1.65;;;26.00;48.20;;;;;;6255039;28;20348;-76
2022/09/06 02:33:14;;;;;;;5.68;1.60;;;26.00;48.30;;;;;;6260377;28;20053;-75
2022/09/06 02:36:15;;;;;;;11.90;1.83;;;26.00;48.50;;;;;;6239216;28;20126;-76
2022/09/06 02:39:16;;;;;;;9.32;1.83;;;26.00;48.50;;;;;;6255893;28;20045;-76
2022/09/06 02:42:17;;;;;;;6.07;1.70;;;26.00;48.50;;;;;;6251500;28;20034;-75
2022/09/06 02:45:19;;;;;;;10.65;2.08;;;26.00;48.60;;;;;;6246490;28;20441;-76
2022/09/06 02:48:21;;;;;;;11.95;1.60;;;26.00;48.60;;;;;;6275329;28;20044;-76
2022/09/06 02:51:22;;;;;;;13.07;2.03;;;25.90;48.60;;;;;;6290093;28;20457;-76
2022/09/06 02:54:23;;;;;;;9.80;1.73;;;25.90;48.80;;;;;;6279423;28;20137;-76
2022/09/06 02:57:24;;;;;;;6.18;1.52;;;25.90;48.90;;;;;;6286508;28;20055;-77
2022/09/06 03:00:27;;;;;;;6.38;1.73;;;25.90;49.00;;;;;;6261760;28;20025;-76
2022/09/06 03:03:29;;;;;;;9.18;1.65;;;25.90;49.10;;;;;;6262517;28;20044;-76
2022/09/06 03:06:30;;;;;;;8.02;1.60;;;25.80;49.10;;;;;;6252290;28;20029;-75
2022/09/06 03:09:31;;;;;;;14.02;1.75;;;25.80;49.10;;;;;;6235861;28;20033;-76
2022/09/06 03:12:32;;;;;;;10.38;1.63;;;25.80;49.20;;;;;;6258443;28;20057;-76
2022/09/06 03:15:32;;;;;;;9.88;1.70;;;25.80;49.40;;;;;;6253054;28;20041;-76
2022/09/06 03:18:33;;;;;;;8.40;1.55;;;25.70;49.50;;;;;;6254892;28;20041;-76
2022/09/06 03:21:34;;;;;;;7.30;1.92;;;25.70;49.60;;;;;;6251586;28;20155;-75
2022/09/06 03:24:35;;;;;;;7.72;1.83;;;25.70;49.70;;;;;;6271648;28;20032;-76
2022/09/06 03:27:36;;;;;;;7.80;2.13;;;25.60;49.80;;;;;;6282134;28;20087;-76
2022/09/06 03:30:37;;;;;;;8.80;1.73;;;25.60;49.80;;;;;;6266696;28;20053;-76
2022/09/06 03:33:38;;;;;;;10.38;2.08;;;25.60;49.90;;;;;;6260714;28;20044;-75
2022/09/06 03:36:39;;;;;;;18.08;2.03;;;25.50;49.80;;;;;;6255504;28;20045;-76
2022/09/06 03:39:40;;;;;;;9.88;2.13;;;25.60;49.80;;;;;;6257153;28;20466;-76
2022/09/06 03:42:41;;;;;;;17.85;2.45;;;25.50;49.70;;;;;;6274046;28;20116;-76
2022/09/06 03:45:50;;;;;;;10.10;2.17;;;25.50;49.60;;;;;;6266993;28;20049;-76
2022/09/06 03:48:51;;;;;;;8.85;2.13;;;25.50;49.70;;;;;;6261275;28;20037;-76
2022/09/06 03:51:52;;;;;;;6.88;1.80;;;25.40;49.70;;;;;;6249191;28;20046;-76
2022/09/06 03:54:53;;;;;;;13.52;2.67;;;25.40;49.80;;;;;;6251381;28;20045;-76
2022/09/06 03:57:54;;;;;;;8.23;2.40;;;25.30;49.90;;;;;;6255169;28;20043;-76
2022/09/06 04:01:06;;;;;;;8.70;2.13;;;25.30;50.10;;;;;;6249522;28;20355;-76
2022/09/06 04:04:07;;;;;;;12.70;2.28;;;25.30;50.20;;;;;;6270914;28;20036;-76
2022/09/06 04:07:08;;;;;;;11.88;3.08;;;25.30;50.30;;;;;;6279647;28;20029;-76
2022/09/06 04:10:09;;;;;;;7.50;1.77;;;25.20;50.30;;;;;;6251651;28;20060;-75
2022/09/06 04:13:10;;;;;;;5.93;1.63;;;25.20;50.30;;;;;;6248076;28;20053;-76
2022/09/06 04:16:11;;;;;;;5.60;1.85;;;25.20;50.40;;;;;;6269918;28;20025;-77
2022/09/06 04:19:12;;;;;;;4.40;1.75;;;25.20;50.50;;;;;;6292665;28;20109;-77
2022/09/06 04:22:13;;;;;;;5.10;1.70;;;25.20;50.60;;;;;;6287585;28;20354;-75
2022/09/06 04:25:14;;;;;;;8.43;1.67;;;25.20;50.70;;;;;;6243402;28;20041;-76
2022/09/06 04:28:17;;;;;;;6.30;2.17;;;25.20;50.80;;;;;;6268358;28;20029;-75
2022/09/06 04:31:17;;;;;;;10.00;2.10;;;25.20;50.90;;;;;;6274906;28;20037;-75
2022/09/06 04:34:18;;;;;;;8.10;1.80;;;25.10;51.00;;;;;;6259963;28;20042;-75
2022/09/06 04:37:19;;;;;;;8.25;2.10;;;25.10;51.00;;;;;;6246462;28;20065;-75
2022/09/06 04:40:20;;;;;;;5.28;1.70;;;25.10;51.10;;;;;;6265554;28;20037;-76
2022/09/06 04:43:22;;;;;;;7.72;1.55;;;25.10;51.20;;;;;;6265485;28;20370;-75
2022/09/06 04:46:25;;;;;;;15.50;2.33;;;25.10;51.20;;;;;;6283029;28;20115;-77
2022/09/06 04:49:26;;;;;;;9.07;2.28;;;25.00;51.20;;;;;;6263159;28;20067;-76
2022/09/06 04:52:27;;;;;;;15.80;1.92;;;25.00;51.30;;;;;;6258769;28;20042;-76
2022/09/06 04:55:30;;;;;;;13.18;2.00;;;25.00;51.30;;;;;;6249208;28;20037;-75
2022/09/06 04:58:30;;;;;;;7.38;2.30;;;25.00;51.30;;;;;;6267768;28;20335;-75
2022/09/06 05:01:31;;;;;;;8.80;1.92;;;25.00;51.30;;;;;;6258750;28;20045;-75
2022/09/06 05:04:32;;;;;;;10.25;2.20;;;25.00;51.40;;;;;;6276595;28;20548;-75
2022/09/06 05:07:33;;;;;;;16.23;2.25;;;25.00;51.50;;;;;;6262143;28;20038;-77
2022/09/06 05:10:34;;;;;;;4.30;1.80;;;24.90;51.60;;;;;;6256354;28;20463;-75
2022/09/06 05:13:35;;;;;;;6.70;1.85;;;24.90;51.60;;;;;;6249963;28;20041;-75
2022/09/06 05:16:36;;;;;;;9.98;2.30;;;24.90;51.60;;;;;;6249792;28;20030;-75
2022/09/06 05:19:37;;;;;;;6.40;1.85;;;24.90;51.70;;;;;;6273698;28;20120;-76
2022/09/06 05:22:38;;;;;;;7.20;1.67;;;24.90;51.80;;;;;;6289427;28;20032;-76
2022/09/06 05:25:39;;;;;;;8.57;1.52;;;24.90;52.00;;;;;;6272123;28;20492;-75
2022/09/06 05:28:40;;;;;;;9.80;2.38;;;24.90;52.10;;;;;;6292241;28;20044;-75
2022/09/06 05:31:41;;;;;;;10.82;1.92;;;24.90;52.20;;;;;;6262501;28;20542;-75
2022/09/06 05:34:42;;;;;;;14.60;2.47;;;24.80;52.30;;;;;;6272343;28;20037;-75
2022/09/06 05:37:43;;;;;;;8.85;2.65;;;24.80;52.30;;;;;;6288901;28;20099;-75
2022/09/06 05:40:43;;;;;;;5.07;1.90;;;24.80;52.30;;;;;;6256780;28;20454;-75
2022/09/06 05:43:46;;;;;;;15.45;2.70;;;24.80;52.30;;;;;;6268661;28;20739;-75
2022/09/06 05:46:46;;;;;;;15.40;2.15;;;24.80;52.30;;;;;;6255747;28;20048;-76
2022/09/06 05:49:47;;;;;;;8.20;2.00;;;24.80;52.50;;;;;;6249637;28;20113;-75
2022/09/06 05:52:48;;;;;;;9.45;1.98;;;24.70;52.60;;;;;;6268070;28;20055;-75
2022/09/06 05:55:49;;;;;;;16.83;2.47;;;24.70;52.60;;;;;;6255800;28;20363;-76
2022/09/06 05:58:50;;;;;;;10.60;2.38;;;24.70;52.60;;;;;;6252241;28;20064;-76
2022/09/06 06:01:52;;;;;;;9.80;2.25;;;24.80;52.60;;;;;;6262308;28;20048;-76
2022/09/06 06:04:53;;;;;;;9.18;2.20;;;24.80;52.70;;;;;;6259864;28;20461;-76
2022/09/06 06:07:55;;;;;;;19.42;2.45;;;24.80;52.70;;;;;;6253933;28;20041;-76
2022/09/06 06:11:00;;;;;;;12.23;2.10;;;24.80;52.60;;;;;;6264448;28;20052;-76
2022/09/06 06:14:03;;;;;;;8.75;2.45;;;24.80;52.60;;;;;;6258679;28;20533;-76
2022/09/06 06:17:03;;;;;;;6.95;2.40;;;24.80;52.60;;;;;;6251905;28;20045;-76
2022/09/06 06:20:05;;;;;;;10.98;2.20;;;24.80;52.70;;;;;;6258963;28;20042;-76
2022/09/06 06:23:06;;;;;;;6.28;1.80;;;24.80;52.50;;;;;;6271428;28;20033;-76
2022/09/06 06:26:08;;;;;;;6.50;1.90;;;24.80;52.50;;;;;;6273079;28;20385;-76
2022/09/06 06:29:09;;;;;;;9.60;2.40;;;24.90;52.50;;;;;;6274474;28;20041;-76
2022/09/06 06:32:10;;;;;;;21.05;2.58;;;24.90;52.50;;;;;;6263584;28;20045;-76
2022/09/06 06:35:11;;;;;;;8.77;2.20;;;24.90;52.50;;;;;;6270390;28;20060;-76
2022/09/06 06:38:12;;;;;;;10.77;2.20;;;25.00;52.50;;;;;;6264038;28;20041;-76
2022/09/06 06:41:16;;;;;;;13.23;3.05;;;25.00;52.30;;;;;;6268474;28;22687;-76
2022/09/06 06:44:16;;;;;;;13.13;2.88;;;25.00;52.40;;;;;;6281324;28;20037;-76
2022/09/06 06:47:18;;;;;;;10.75;2.70;;;25.00;52.30;;;;;;6267404;28;20441;-76
2022/09/06 06:50:19;;;;;;;9.00;2.25;;;25.00;52.30;;;;;;6252222;28;20029;-76
2022/09/06 06:53:19;;;;;;;11.18;2.05;;;25.10;52.10;;;;;;6253422;28;20551;-76
2022/09/06 06:56:32;;;;;;;10.48;2.45;;;25.10;52.00;;;;;;6263207;28;20522;-76
2022/09/06 06:59:33;;;;;;;14.98;2.28;;;25.10;51.90;;;;;;6279188;28;20045;-76
2022/09/06 07:02:34;;;;;;;13.63;2.42;;;25.20;51.70;;;;;;6268449;28;20038;-76
2022/09/06 07:05:35;;;;;;;13.63;2.95;;;25.20;51.70;;;;;;6277548;28;20037;-76
2022/09/06 07:08:37;;;;;;;14.13;2.50;;;25.20;51.70;;;;;;6260969;28;20049;-76
2022/09/06 07:11:37;;;;;;;15.38;3.83;;;25.20;51.70;;;;;;6264329;28;20072;-76
2022/09/06 07:14:38;;;;;;;19.00;2.38;;;25.20;51.70;;;;;;6254220;28;20041;-76
2022/09/06 07:17:39;;;;;;;10.68;2.28;;;25.30;51.70;;;;;;6273765;28;20061;-76
2022/09/06 07:20:40;;;;;;;12.40;2.60;;;25.30;51.70;;;;;;6255341;28;20049;-76
2022/09/06 07:23:42;;;;;;;13.38;2.22;;;25.40;51.70;;;;;;6257405;28;20025;-76
2022/09/06 07:26:42;;;;;;;22.27;2.78;;;25.50;51.50;;;;;;6255770;28;20091;-76
2022/09/06 07:29:43;;;;;;;7.43;2.40;;;25.60;51.30;;;;;;6297056;28;20037;-76
2022/09/06 07:32:44;;;;;;;10.77;3.05;;;25.80;51.20;;;;;;6279030;28;20044;-76
2022/09/06 07:35:59;;;;;;;13.48;2.80;;;25.80;50.80;;;;;;6251780;28;20045;-76
2022/09/06 07:39:00;;;;;;;13.05;2.30;;;26.00;50.70;;;;;;6256041;28;20057;-76
2022/09/06 07:42:01;;;;;;;6.93;2.03;;;26.10;50.50;;;;;;6249871;28;20053;-76
2022/09/06 07:45:03;;;;;;;13.98;2.22;;;26.30;50.30;;;;;;6287428;28;20036;-76
2022/09/06 07:48:04;;;;;;;13.23;2.90;;;26.40;50.00;;;;;;6256763;28;20036;-75
2022/09/06 07:51:10;;;;;;;9.02;2.85;;;26.50;49.80;;;;;;6254855;28;20033;-76
2022/09/06 07:54:11;;;;;;;12.07;2.60;;;26.70;49.60;;;;;;6267003;28;20033;-76
2022/09/06 07:57:12;;;;;;;14.52;2.63;;;26.80;49.40;;;;;;6273820;28;20043;-75
2022/09/06 08:00:13;;;;;;;18.48;2.85;;;26.90;49.40;;;;;;6247206;28;20037;-76
2022/09/06 08:03:14;;;;;;;6.88;1.98;;;27.00;49.10;;;;;;6265398;28;20060;-76
2022/09/06 08:06:15;;;;;;;9.52;2.35;;;27.10;48.80;;;;;;6263064;28;20041;-76
2022/09/06 08:09:15;;;;;;;12.77;2.05;;;27.30;48.70;;;;;;6247578;28;20112;-76
2022/09/06 08:12:17;;;;;;;11.90;2.35;;;27.40;48.50;;;;;;6276858;28;20116;-76
2022/09/06 08:15:18;;;;;;;21.35;2.80;;;27.50;48.70;;;;;;6261670;28;20120;-76
2022/09/06 08:18:19;;;;;;;9.00;2.20;;;27.70;48.00;;;;;;6277047;28;20045;-76
2022/09/06 08:21:25;;;;;;;7.90;2.40;;;27.80;47.70;;;;;;6255461;28;20099;-76
2022/09/06 08:24:26;;;;;;;18.50;2.80;;;28.00;47.40;;;;;;6253651;28;20421;-76
2022/09/06 08:27:27;;;;;;;11.82;2.70;;;28.30;47.10;;;;;;6261424;28;20052;-76
2022/09/06 08:30:29;;;;;;;10.75;3.00;;;28.40;46.60;;;;;;6269919;28;20029;-76
2022/09/06 08:33:29;;;;;;;7.10;2.50;;;28.50;46.10;;;;;;6264036;28;20036;-76
2022/09/06 08:36:31;;;;;;;15.30;2.53;;;28.60;45.90;;;;;;6257947;28;20084;-76
2022/09/06 08:39:33;;;;;;;6.47;2.53;;;28.80;45.60;;;;;;6259119;28;20383;-76
2022/09/06 08:42:38;;;;;;;10.88;2.20;;;28.80;45.30;;;;;;6249332;28;20056;-76
2022/09/06 08:45:40;;;;;;;10.68;3.55;;;28.80;44.70;;;;;;6267318;28;20067;-75
2022/09/06 08:48:41;;;;;;;16.08;2.67;;;28.80;44.60;;;;;;6269956;28;20056;-77
2022/09/06 08:52:13;;;;;;;15.25;3.22;;;28.80;44.60;;;;;;6260690;28;20068;-77
2022/09/06 08:55:22;;;;;;;43.25;16.33;;;28.80;44.50;;;;;;6299178;28;20182;-76
2022/09/06 08:58:45;;;;;;;14.77;5.05;;;28.90;43.90;;;;;;6263083;28;20040;-76
2022/09/06 09:02:14;;;;;;;16.48;4.18;;;28.80;43.30;;;;;;6256019;28;20417;-75
2022/09/06 09:05:37;;;;;;;9.02;3.53;;;28.80;43.40;;;;;;6300817;28;20040;-75
2022/09/06 09:08:57;;;;;;;10.23;2.85;;;28.80;43.50;;;;;;6270758;28;20037;-76
2022/09/06 09:12:00;;;;;;;11.02;2.20;;;29.00;43.20;;;;;;6271736;28;20052;-76
2022/09/06 09:15:07;;;;;;;9.63;2.40;;;29.10;42.90;;;;;;6274485;28;20041;-75
2022/09/06 09:18:08;;;;;;;11.60;3.90;;;29.10;42.60;;;;;;6260148;28;20461;-75
2022/09/06 09:21:10;;;;;;;13.70;2.90;;;29.20;42.50;;;;;;6265856;28;20070;-76
2022/09/06 09:24:14;;;;;;;19.25;1.98;;;29.30;42.40;;;;;;6265817;28;20029;-78
2022/09/06 09:27:19;;;;;;;12.60;2.38;;;29.30;42.50;;;;;;6260332;28;20041;-77
2022/09/06 09:30:20;;;;;;;12.43;2.33;;;29.40;42.80;;;;;;6258672;28;20102;-75
2022/09/06 09:33:34;;;;;;;17.55;2.05;;;29.50;42.80;;;;;;6291535;28;20044;-77
2022/09/06 09:36:35;;;;;;;9.07;2.25;;;29.50;42.90;;;;;;6258307;28;20046;-77
2022/09/06 09:39:38;;;;;;;16.23;2.30;;;29.70;42.80;;;;;;6270868;28;20556;-76
2022/09/06 09:42:40;;;;;;;13.68;2.40;;;29.70;42.70;;;;;;6266943;28;20033;-76
2022/09/06 09:45:42;;;;;;;6.93;2.55;;;29.80;43.30;;;;;;6263947;28;20052;-77
2022/09/06 09:49:26;;;;;;;11.35;2.63;;;29.90;42.60;;;;;;6272028;28;20415;-76
2022/09/06 09:52:30;;;;;;;5.38;2.15;;;29.90;42.50;;;;;;6259446;28;20028;-76
2022/09/06 09:55:31;;;;;;;19.95;3.28;;;29.90;42.40;;;;;;6272614;28;20040;-76
2022/09/06 09:58:35;;;;;;;14.98;2.15;;;29.90;42.30;;;;;;6271257;28;20129;-76
2022/09/06 10:01:37;;;;;;;13.18;2.20;;;30.00;42.10;;;;;;6272190;28;20037;-76
2022/09/06 10:04:48;;;;;;;10.88;2.20;;;30.00;41.90;;;;;;6262757;28;20072;-76
2022/09/06 10:07:58;;;;;;;12.55;1.75;;;30.10;41.70;;;;;;6273651;28;20037;-77
2022/09/06 10:11:00;;;;;;;8.18;2.28;;;30.20;41.40;;;;;;6267832;28;20181;-76
2022/09/06 10:14:12;;;;;;;11.75;2.67;;;30.20;41.00;;;;;;6286578;28;20481;-77
2022/09/06 10:17:30;;;;;;;10.88;2.15;;;30.30;40.90;;;;;;6285959;28;20613;-76
2022/09/06 10:20:47;;;;;;;9.45;2.00;;;30.40;40.40;;;;;;6271308;28;20036;-76
2022/09/06 10:24:22;;;;;;;9.55;1.95;;;30.40;40.30;;;;;;6270053;28;20033;-76
2022/09/06 10:27:26;;;;;;;11.57;2.42;;;30.40;40.30;;;;;;6265367;28;20064;-76
2022/09/06 10:30:29;;;;;;;7.55;2.10;;;30.50;40.10;;;;;;6243397;28;20033;-76
2022/09/06 10:33:36;;;;;;;6.40;2.72;;;30.60;40.00;;;;;;6285918;28;20028;-76
2022/09/06 10:36:45;;;;;;;8.13;2.63;;;30.60;39.80;;;;;;6261435;28;20505;-76
2022/09/06 10:40:05;;;;;;;18.42;2.80;;;30.70;39.80;;;;;;6250502;28;20063;-76
2022/09/06 10:43:13;;;;;;;18.30;2.58;;;31.00;39.60;;;;;;6247386;28;20033;-77
2022/09/06 10:46:17;;;;;;;6.38;2.08;;;31.30;39.10;;;;;;6265970;28;20118;-77
2022/09/06 10:49:19;;;;;;;9.35;2.08;;;31.70;38.60;;;;;;6261698;28;20362;-77
2022/09/06 10:52:37;;;;;;;17.27;2.05;;;32.00;38.10;;;;;;6251507;28;20086;-77
2022/09/06 10:55:40;;;;;;;9.65;1.95;;;32.20;37.60;;;;;;6254438;28;20178;-77
2022/09/06 10:59:02;;;;;;;14.00;2.30;;;32.50;37.10;;;;;;6263139;28;20037;-76
2022/09/06 11:02:31;;;;;;;9.77;1.95;;;32.80;36.70;;;;;;6257370;28;20082;-76
2022/09/06 11:05:41;;;;;;;9.32;1.85;;;33.10;36.00;;;;;;6251584;28;20029;-76
2022/09/06 11:09:16;;;;;;;11.18;2.45;;;33.20;35.80;;;;;;6255097;28;20061;-76
2022/09/06 11:12:28;;;;;;;11.25;2.40;;;33.30;35.60;;;;;;6254230;28;20029;-76
2022/09/06 11:15:54;;;;;;;12.23;2.42;;;33.40;35.20;;;;;;6250366;28;20041;-76
2022/09/06 11:19:25;;;;;;;11.13;2.10;;;33.40;35.40;;;;;;6236024;28;20355;-76
2022/09/06 11:22:54;;;;;;;11.52;2.17;;;33.60;35.80;;;;;;6248921;28;20037;-77
2022/09/06 11:26:29;;;;;;;10.52;2.13;;;33.70;35.90;;;;;;6255420;28;20079;-77
2022/09/06 11:29:32;;;;;;;8.95;2.50;;;33.90;35.90;;;;;;6258517;28;20037;-77
2022/09/06 11:32:39;;;;;;;6.35;1.70;;;34.00;35.60;;;;;;6254602;28;20151;-76
2022/09/06 11:35:41;;;;;;;11.88;1.92;;;34.20;35.30;;;;;;6238058;28;20033;-76
2022/09/06 11:38:52;;;;;;;6.28;1.92;;;34.50;34.80;;;;;;6241246;28;20056;-76
2022/09/06 11:41:52;;;;;;;6.57;1.77;;;34.80;34.30;;;;;;6247163;28;20183;-75
2022/09/06 11:44:57;;;;;;;10.30;2.20;;;35.10;33.80;;;;;;6256769;28;20140;-77
2022/09/06 11:48:32;;;;;;;9.70;1.90;;;35.30;33.40;;;;;;6266835;28;20112;-78
2022/09/06 11:51:43;;;;;;;10.30;1.83;;;35.60;33.10;;;;;;6260829;28;20033;-76
2022/09/06 11:54:48;;;;;;;12.23;1.63;;;35.80;32.90;;;;;;6240903;28;20068;-77
2022/09/06 11:57:55;;;;;;;12.23;2.67;;;36.00;32.40;;;;;;6245205;28;20040;-76
2022/09/06 12:01:11;;;;;;;8.95;1.77;;;36.30;31.90;;;;;;6268144;28;20511;-76
2022/09/06 12:04:12;;;;;;;13.57;2.20;;;36.50;31.10;;;;;;6245509;28;20040;-75
2022/09/06 12:07:13;;;;;;;4.30;1.38;;;36.70;30.80;;;;;;6246311;28;20033;-75
2022/09/06 12:10:37;;;;;;;6.28;1.40;;;37.00;30.40;;;;;;6287561;28;20099;-77
2022/09/06 12:13:50;;;;;;;7.75;1.73;;;37.30;30.00;;;;;;6246174;28;20033;-76
2022/09/06 12:16:57;;;;;;;17.17;1.52;;;37.50;29.80;;;;;;6254666;28;20041;-75
2022/09/06 12:20:07;;;;;;;11.93;1.73;;;37.80;29.70;;;;;;6278706;28;20415;-75
2022/09/06 12:23:07;;;;;;;12.23;1.73;;;38.10;29.40;;;;;;6280025;28;20029;-76
2022/09/06 12:26:10;;;;;;;7.10;1.40;;;38.50;29.00;;;;;;6250001;28;20037;-76
2022/09/06 12:29:11;;;;;;;8.45;1.60;;;38.80;28.50;;;;;;6253254;28;20043;-75
2022/09/06 12:32:20;;;;;;;10.02;1.90;;;39.10;28.20;;;;;;6263855;28;20119;-74
2022/09/06 12:35:24;;;;;;;7.45;1.60;;;39.30;28.00;;;;;;6244598;28;20044;-75
2022/09/06 12:38:25;;;;;;;10.30;1.88;;;39.60;27.70;;;;;;6233679;28;20122;-75
2022/09/06 12:41:35;;;;;;;11.40;2.00;;;39.80;27.70;;;;;;6233024;28;20037;-75
2022/09/06 12:44:44;;;;;;;6.20;1.55;;;40.00;27.50;;;;;;6245734;28;20044;-75
2022/09/06 12:47:45;;;;;;;7.40;1.50;;;40.50;27.10;;;;;;6277972;28;20353;-75
2022/09/06 12:51:03;;;;;;;8.13;1.63;;;40.90;26.70;;;;;;6251336;28;20033;-75
2022/09/06 12:54:16;;;;;;;7.50;1.52;;;41.20;26.90;;;;;;6264722;28;20465;-75
2022/09/06 12:57:22;;;;;;;11.98;1.50;;;41.70;25.80;;;;;;6256863;28;20053;-76
2022/09/06 13:00:26;;;;;;;9.98;1.77;;;42.20;25.50;;;;;;6268142;28;20346;-75
2022/09/06 13:03:47;;;;;;;7.20;1.58;;;42.40;25.40;;;;;;6273537;28;20362;-75
2022/09/06 13:06:48;;;;;;;13.60;1.60;;;42.40;25.30;;;;;;6238209;28;20100;-75
2022/09/06 13:09:54;;;;;;;10.25;1.60;;;42.90;24.90;;;;;;6251836;28;20038;-75
2022/09/06 13:12:57;;;;;;;7.28;2.15;;;43.00;24.60;;;;;;6248855;28;20080;-74
2022/09/06 13:15:58;;;;;;;7.55;1.70;;;43.20;24.40;;;;;;6260377;28;20094;-75
2022/09/06 13:19:12;;;;;;;3.78;1.33;;;43.30;24.10;;;;;;6265578;28;20055;-75
2022/09/06 13:22:53;;;;;;;18.58;1.67;;;43.70;24.00;;;;;;6268381;28;20044;-76
2022/09/06 13:25:55;;;;;;;6.55;1.63;;;43.80;23.60;;;;;;6258811;28;20467;-76
2022/09/06 13:28:57;;;;;;;12.80;2.05;;;43.70;23.50;;;;;;6241247;28;20037;-76
2022/09/06 13:32:01;;;;;;;13.85;1.98;;;43.60;23.60;;;;;;6245593;28;20033;-76
2022/09/06 13:35:03;;;;;;;11.10;1.85;;;43.60;23.50;;;;;;6258572;28;20041;-76
2022/09/06 13:38:32;;;;;;;8.55;1.40;;;43.60;23.50;;;;;;6246712;28;20051;-75
2022/09/06 13:41:40;;;;;;;11.57;2.15;;;43.60;23.40;;;;;;6290360;28;20042;-75
2022/09/06 13:44:41;;;;;;;6.35;2.05;;;43.70;23.30;;;;;;6253931;28;20040;-76
2022/09/06 13:47:41;;;;;;;12.90;1.65;;;43.70;23.20;;;;;;6250429;28;20033;-75
2022/09/06 13:50:42;;;;;;;13.07;1.58;;;43.20;23.60;;;;;;6264356;28;20038;-75
2022/09/06 13:53:43;;;;;;;11.82;2.08;;;42.40;24.30;;;;;;6253257;28;20120;-76
2022/09/06 13:56:44;;;;;;;3.78;1.27;;;41.60;25.00;;;;;;6245613;28;20072;-75
2022/09/06 13:59:45;;;;;;;9.73;2.05;;;40.60;25.60;;;;;;6243394;28;20041;-75
2022/09/06 14:02:48;;;;;;;11.18;1.80;;;39.90;26.50;;;;;;6256011;28;20088;-75
2022/09/06 14:05:49;;;;;;;7.05;1.58;;;39.20;27.10;;;;;;6259747;28;20034;-75
2022/09/06 14:08:50;;;;;;;6.43;1.63;;;38.70;27.60;;;;;;6248615;28;22211;-75
2022/09/06 14:11:51;;;;;;;13.43;1.83;;;38.20;28.20;;;;;;6243592;28;20176;-76
2022/09/06 14:14:53;;;;;;;7.25;1.70;;;37.70;28.60;;;;;;6254693;28;20107;-77
2022/09/06 14:17:54;;;;;;;9.75;1.65;;;37.30;29.10;;;;;;6271353;28;20487;-75
2022/09/06 14:20:57;;;;;;;3.30;1.70;;;37.00;29.50;;;;;;6256470;28;20087;-75
2022/09/06 14:23:58;;;;;;;5.07;1.80;;;36.60;29.90;;;;;;6258967;28;20115;-76
2022/09/06 14:27:03;;;;;;;7.03;1.45;;;36.20;30.20;;;;;;6254804;28;20025;-75
2022/09/06 14:30:04;;;;;;;6.18;1.33;;;36.00;30.70;;;;;;6286309;28;20036;-75
2022/09/06 14:33:05;;;;;;;10.52;2.00;;;35.80;31.20;;;;;;6260058;28;20032;-75
2022/09/06 14:36:14;;;;;;;8.13;2.22;;;35.60;31.50;;;;;;6265356;28;20508;-74
2022/09/06 14:39:15;;;;;;;13.38;1.52;;;35.40;31.80;;;;;;6252776;28;20044;-75
2022/09/06 14:42:16;;;;;;;7.97;2.05;;;35.30;32.20;;;;;;6221697;28;20049;-74
2022/09/06 14:45:18;;;;;;;7.68;1.70;;;35.10;32.40;;;;;;6262767;28;20052;-76
2022/09/06 14:48:19;;;;;;;8.40;1.63;;;35.00;32.60;;;;;;6264932;28;20041;-75
2022/09/06 14:51:22;;;;;;;8.93;1.85;;;35.00;32.90;;;;;;6249021;28;20037;-77
2022/09/06 14:54:23;;;;;;;7.13;1.63;;;35.00;33.10;;;;;;6249227;28;20037;-77
2022/09/06 14:57:24;;;;;;;7.65;1.77;;;34.90;33.40;;;;;;6253218;28;20119;-77
2022/09/06 15:00:25;;;;;;;11.90;1.50;;;34.80;33.40;;;;;;6246049;28;20466;-76
2022/09/06 15:03:26;;;;;;;8.77;1.63;;;34.80;33.60;;;;;;6254124;28;20461;-76
2022/09/06 15:06:27;;;;;;;9.02;2.20;;;34.70;34.30;;;;;;6271764;28;20060;-78
2022/09/06 15:09:28;;;;;;;3.35;1.15;;;34.70;33.90;;;;;;6267074;28;20037;-78
2022/09/06 15:12:29;;;;;;;11.02;1.80;;;34.70;34.20;;;;;;6261870;28;20381;-77
2022/09/06 15:15:30;;;;;;;4.82;2.03;;;34.50;34.40;;;;;;6266641;28;20041;-77
2022/09/06 15:18:32;;;;;;;11.45;1.77;;;34.40;34.50;;;;;;6265534;28;20037;-77
2022/09/06 15:21:32;;;;;;;8.70;1.65;;;34.30;34.80;;;;;;6280391;28;20037;-77
2022/09/06 15:24:35;;;;;;;5.43;1.25;;;34.20;34.80;;;;;;6261918;28;20037;-77
2022/09/06 15:27:36;;;;;;;9.02;1.55;;;34.20;34.90;;;;;;6269489;28;20128;-77
2022/09/06 15:30:38;;;;;;;5.95;1.65;;;34.10;34.90;;;;;;6258827;28;20114;-78
2022/09/06 15:33:40;;;;;;;7.45;1.70;;;34.00;34.90;;;;;;6270565;28;20083;-78
2022/09/06 15:36:58;;;;;;;8.80;1.23;;;33.90;35.10;;;;;;6226860;28;20081;-78
2022/09/06 15:39:59;;;;;;;17.77;1.80;;;33.90;35.30;;;;;;6248051;28;20042;-77
2022/09/06 15:43:01;;;;;;;18.35;1.88;;;33.80;35.30;;;;;;6247733;28;20095;-78
2022/09/06 15:46:22;;;;;;;8.65;2.05;;;33.80;35.50;;;;;;6265648;28;20044;-78
2022/09/06 15:49:30;;;;;;;9.45;1.63;;;33.70;35.50;;;;;;6265084;28;20045;-78
2022/09/06 15:52:40;;;;;;;6.40;1.67;;;33.70;35.60;;;;;;6267367;28;20028;-78
2022/09/06 15:55:56;;;;;;;13.23;2.17;;;33.70;35.70;;;;;;6250934;28;20040;-77
2022/09/06 15:58:57;;;;;;;5.68;1.50;;;33.70;35.80;;;;;;6252666;28;20037;-77
2022/09/06 16:01:58;;;;;;;14.32;1.70;;;33.60;36.10;;;;;;6258285;28;20045;-76